Time;durP1;ratioP1;P1;durP2;ratioP2;P2;SDS_P1;SDS_P2;PMS_P1;PMS_P2;Temp;Humidity;BMP_temperature;BMP_pressure;BME280_temperature;BME280_humidity;BME280_pressure;Samples;Min_cycle;Max_cycle;Signal;HPM_P1;HPM_P2
2023/07/06 00:01:02;;;;;;;10.98;5.32;;;11.60;99.90;;;;;;5074999;28;20067;-54
2023/07/06 00:03:31;;;;;;;11.25;5.45;;;11.60;99.90;;;;;;5056882;28;20037;-55
2023/07/06 00:05:57;;;;;;;9.15;5.60;;;11.70;99.90;;;;;;5074796;28;20068;-54
2023/07/06 00:08:23;;;;;;;8.00;5.10;;;11.90;99.90;;;;;;5074851;28;20304;-55
2023/07/06 00:10:49;;;;;;;12.70;5.88;;;11.60;99.90;;;;;;5075362;28;20137;-54
2023/07/06 00:13:16;;;;;;;13.20;5.97;;;11.70;99.90;;;;;;5056432;28;20893;-55
2023/07/06 00:15:42;;;;;;;10.27;5.95;;;11.80;99.90;;;;;;5074219;28;20048;-54
2023/07/06 00:18:09;;;;;;;11.40;6.00;;;11.70;99.90;;;;;;5075062;28;20145;-54
2023/07/06 00:20:37;;;;;;;8.15;5.65;;;11.60;99.90;;;;;;5075686;28;20140;-54
2023/07/06 00:23:04;;;;;;;8.68;5.82;;;11.50;99.90;;;;;;5074935;28;20044;-52
2023/07/06 00:25:30;;;;;;;9.20;5.78;;;11.50;99.90;;;;;;5074063;28;20131;-53
2023/07/06 00:28:01;;;;;;;10.15;5.45;;;11.70;99.90;;;;;;5055504;28;20046;-54
2023/07/06 00:30:53;;;;;;;12.02;5.80;;;11.70;99.90;;;;;;5073538;28;20055;-54
2023/07/06 00:33:20;;;;;;;10.35;5.97;;;11.50;99.90;;;;;;5073328;28;20040;-53
2023/07/06 00:35:47;;;;;;;10.35;6.20;;;11.30;99.90;;;;;;5073612;28;20041;-54
2023/07/06 00:38:18;;;;;;;16.30;5.88;;;11.50;99.90;;;;;;5054940;28;20072;-53
2023/07/06 00:40:50;;;;;;;14.75;6.80;;;11.30;99.90;;;;;;5072242;28;20415;-53
2023/07/06 00:43:20;;;;;;;10.48;6.00;;;11.40;99.90;;;;;;5072696;28;20139;-53
2023/07/06 00:45:50;;;;;;;15.40;6.57;;;11.40;99.90;;;;;;5073607;28;20032;-52
2023/07/06 00:48:28;;;;;;;9.38;6.20;;;11.40;99.90;;;;;;5072417;28;20051;-53
2023/07/06 00:50:58;;;;;;;11.43;6.18;;;11.30;99.90;;;;;;5072409;28;20076;-53
2023/07/06 00:53:27;;;;;;;12.93;6.05;;;11.40;99.90;;;;;;5072740;28;20843;-53
2023/07/06 00:55:57;;;;;;;11.52;6.05;;;11.40;99.90;;;;;;5074363;28;20422;-52
2023/07/06 00:58:33;;;;;;;9.77;6.28;;;11.20;99.90;;;;;;5072930;28;20143;-54
2023/07/06 01:01:03;;;;;;;11.45;6.60;;;11.30;99.90;;;;;;5072357;28;20121;-54
2023/07/06 01:03:29;;;;;;;10.98;6.40;;;11.20;99.90;;;;;;5073230;28;20036;-54
2023/07/06 01:06:01;;;;;;;12.27;6.95;;;11.30;99.90;;;;;;5054215;28;20423;-51
2023/07/06 01:08:27;;;;;;;10.52;6.60;;;11.20;99.90;;;;;;5073266;28;20051;-53
2023/07/06 01:10:54;;;;;;;11.73;6.50;;;11.20;99.90;;;;;;5074226;28;20028;-53
2023/07/06 01:13:23;;;;;;;10.50;6.88;;;11.10;99.90;;;;;;5073399;28;20134;-53
2023/07/06 01:16:06;;;;;;;11.00;6.97;;;11.20;99.90;;;;;;5072757;28;20540;-55
2023/07/06 01:18:50;;;;;;;11.77;7.60;;;11.30;99.90;;;;;;5057213;28;20052;-52
2023/07/06 01:21:25;;;;;;;13.68;6.70;;;11.30;99.90;;;;;;5073202;28;20700;-52
2023/07/06 01:24:05;;;;;;;10.68;7.43;;;11.20;99.90;;;;;;5073134;28;20070;-52
2023/07/06 01:26:49;;;;;;;11.50;7.28;;;11.20;99.90;;;;;;5074214;28;20366;-54
2023/07/06 01:29:26;;;;;;;11.73;7.55;;;11.10;99.90;;;;;;5074420;28;20123;-54
2023/07/06 01:32:02;;;;;;;11.45;7.40;;;11.10;99.90;;;;;;5073590;28;20044;-53
2023/07/06 01:34:47;;;;;;;12.00;7.47;;;11.10;99.90;;;;;;5072857;28;20040;-53
2023/07/06 01:37:22;;;;;;;13.27;7.43;;;11.20;99.90;;;;;;5071737;28;20568;-53
2023/07/06 01:39:48;;;;;;;13.43;8.07;;;11.30;99.90;;;;;;5072193;28;20044;-53
2023/07/06 01:42:25;;;;;;;16.00;8.43;;;11.30;99.90;;;;;;5072286;28;20048;-54
2023/07/06 01:44:52;;;;;;;12.85;7.63;;;11.30;99.90;;;;;;5072334;28;20642;-53
2023/07/06 01:47:19;;;;;;;12.18;7.63;;;11.20;99.90;;;;;;5071790;28;20577;-54
2023/07/06 01:49:46;;;;;;;12.75;7.55;;;11.30;99.90;;;;;;5071922;28;20397;-51
2023/07/06 01:52:51;;;;;;;13.65;9.35;;;11.40;99.90;;;;;;5072945;28;20051;-54
2023/07/06 01:55:27;;;;;;;12.07;8.20;;;11.30;99.90;;;;;;5077817;28;20047;-55
2023/07/06 01:58:25;;;;;;;15.45;8.90;;;11.40;99.90;;;;;;5057929;28;20386;-54
2023/07/06 02:01:04;;;;;;;13.85;8.00;;;11.30;99.90;;;;;;5069528;28;20044;-54
2023/07/06 02:03:30;;;;;;;12.75;8.27;;;11.50;99.90;;;;;;5075693;28;20511;-54
2023/07/06 02:05:56;;;;;;;15.80;8.48;;;11.40;99.90;;;;;;5076718;28;20079;-54
2023/07/06 02:08:23;;;;;;;14.85;8.75;;;11.60;99.90;;;;;;5075529;28;20417;-54
2023/07/06 02:10:50;;;;;;;10.68;8.13;;;11.50;99.90;;;;;;5057517;28;20410;-53
2023/07/06 02:13:16;;;;;;;17.90;8.55;;;11.40;99.90;;;;;;5076278;28;20056;-55
2023/07/06 02:15:42;;;;;;;13.70;8.63;;;11.70;99.90;;;;;;5076103;28;20067;-53
2023/07/06 02:18:08;;;;;;;11.13;8.65;;;11.20;99.90;;;;;;5076375;28;20554;-52
2023/07/06 02:20:34;;;;;;;12.88;8.95;;;11.60;99.90;;;;;;5076371;28;20050;-53
2023/07/06 02:23:00;;;;;;;12.60;8.55;;;13.70;99.90;;;;;;5057770;28;20125;-55
2023/07/06 02:25:26;;;;;;;15.75;8.65;;;11.40;99.90;;;;;;5076339;28;20050;-54
2023/07/06 02:27:51;;;;;;;14.05;9.30;;;11.60;99.90;;;;;;5076858;28;20548;-55
2023/07/06 02:30:17;;;;;;;15.77;9.75;;;11.50;99.90;;;;;;5077009;28;20039;-55
2023/07/06 02:32:43;;;;;;;14.68;9.68;;;11.70;99.90;;;;;;5077723;28;20455;-53
2023/07/06 02:35:10;;;;;;;16.33;9.35;;;11.50;99.90;;;;;;5075579;28;20138;-55
2023/07/06 02:37:38;;;;;;;14.85;9.20;;;11.60;99.90;;;;;;5042298;28;20036;-52
2023/07/06 02:40:10;;;;;;;13.48;9.30;;;11.50;99.90;;;;;;5058815;28;20158;-54
2023/07/06 02:42:37;;;;;;;19.10;9.90;;;11.40;99.90;;;;;;5076460;28;20044;-52
2023/07/06 02:45:05;;;;;;;18.60;9.60;;;11.70;99.90;;;;;;5058952;28;20031;-55
2023/07/06 02:47:31;;;;;;;17.33;9.18;;;11.50;99.90;;;;;;5077343;28;20039;-51
2023/07/06 02:49:57;;;;;;;14.18;9.57;;;11.60;99.90;;;;;;5075844;28;20121;-50
2023/07/06 02:52:23;;;;;;;18.58;9.60;;;11.40;99.90;;;;;;5057976;28;20422;-51
2023/07/06 02:54:49;;;;;;;14.13;10.13;;;11.50;99.90;;;;;;5076722;28;20139;-53
2023/07/06 02:57:14;;;;;;;18.33;10.20;;;11.30;99.90;;;;;;5077860;28;20047;-53
2023/07/06 02:59:40;;;;;;;16.02;10.15;;;11.50;99.90;;;;;;5077283;28;20147;-55
2023/07/06 03:02:06;;;;;;;17.23;9.65;;;11.40;99.90;;;;;;5077053;28;20517;-53
2023/07/06 03:04:32;;;;;;;15.88;10.15;;;11.20;99.90;;;;;;5055845;28;20106;-54
2023/07/06 03:06:58;;;;;;;17.73;9.90;;;11.40;99.90;;;;;;5075119;28;20078;-52
2023/07/06 03:09:24;;;;;;;19.42;9.50;;;11.40;99.90;;;;;;5075573;28;20028;-53
2023/07/06 03:11:52;;;;;;;16.75;9.70;;;11.30;99.90;;;;;;5075009;28;20554;-54
2023/07/06 03:14:25;;;;;;;16.45;10.55;;;11.30;99.90;;;;;;5074067;28;20040;-52
2023/07/06 03:16:54;;;;;;;22.67;10.77;;;11.30;99.90;;;;;;5075051;28;20120;-53
2023/07/06 03:19:21;;;;;;;17.30;10.13;;;11.20;99.90;;;;;;5074152;28;20149;-53
2023/07/06 03:21:47;;;;;;;16.35;10.65;;;11.20;99.90;;;;;;5056389;28;20891;-54
2023/07/06 03:24:13;;;;;;;18.48;11.05;;;11.30;99.90;;;;;;5075202;28;20040;-49
2023/07/06 03:26:41;;;;;;;13.60;10.15;;;11.20;99.90;;;;;;5076179;28;20146;-52
2023/07/06 03:29:08;;;;;;;17.60;10.82;;;11.50;99.90;;;;;;5075697;28;20119;-51
2023/07/06 03:31:35;;;;;;;18.05;11.18;;;11.10;99.90;;;;;;5075378;28;20062;-53
2023/07/06 03:34:02;;;;;;;17.27;10.93;;;11.40;99.90;;;;;;5074413;28;20193;-53
2023/07/06 03:36:28;;;;;;;17.13;11.32;;;11.60;99.90;;;;;;5073593;28;20047;-50
2023/07/06 03:38:54;;;;;;;15.73;9.98;;;11.30;99.90;;;;;;5075935;28;20367;-50
2023/07/06 03:41:20;;;;;;;18.77;10.48;;;11.20;99.90;;;;;;5074473;28;20052;-53
2023/07/06 03:43:46;;;;;;;17.20;10.30;;;11.40;99.90;;;;;;5075026;28;20031;-53
2023/07/06 03:46:15;;;;;;;17.58;10.48;;;12.90;99.90;;;;;;5074220;28;20063;-52
2023/07/06 03:48:40;;;;;;;17.67;10.93;;;11.50;99.90;;;;;;5073827;28;20131;-51
2023/07/06 03:51:07;;;;;;;20.05;11.30;;;11.60;99.90;;;;;;5074141;28;20043;-50
2023/07/06 03:53:35;;;;;;;16.42;10.85;;;11.60;99.90;;;;;;5074436;28;20036;-52
2023/07/06 03:56:06;;;;;;;16.00;10.57;;;11.50;99.90;;;;;;5075808;28;20047;-52
2023/07/06 03:58:32;;;;;;;21.13;10.48;;;11.50;99.90;;;;;;5075170;28;20315;-51
2023/07/06 04:00:58;;;;;;;17.20;10.88;;;11.80;99.90;;;;;;5074437;28;20043;-53
2023/07/06 04:03:26;;;;;;;20.08;10.43;;;11.80;99.90;;;;;;5075237;28;20047;-52
2023/07/06 04:05:53;;;;;;;16.60;9.85;;;12.00;99.90;;;;;;5075500;28;20055;-50
2023/07/06 04:08:21;;;;;;;18.35;10.30;;;11.90;99.90;;;;;;5073949;28;20036;-53
2023/07/06 04:10:48;;;;;;;18.55;11.13;;;11.80;99.90;;;;;;5074516;28;20046;-54
2023/07/06 04:13:14;;;;;;;14.10;10.85;;;11.90;99.90;;;;;;5074948;28;20048;-53
2023/07/06 04:15:46;;;;;;;14.02;10.32;;;11.90;99.90;;;;;;5074972;28;20050;-51
2023/07/06 04:18:15;;;;;;;19.00;9.63;;;11.90;99.90;;;;;;5055893;28;20051;-53
2023/07/06 04:20:41;;;;;;;18.70;10.73;;;12.00;99.90;;;;;;5074254;28;20102;-53
2023/07/06 04:23:09;;;;;;;14.85;9.45;;;12.10;99.90;;;;;;5073576;28;20208;-52
2023/07/06 04:25:35;;;;;;;16.30;9.73;;;12.10;99.90;;;;;;5055153;28;20425;-50
2023/07/06 04:28:05;;;;;;;18.05;10.35;;;12.00;99.90;;;;;;5073799;28;20047;-51
2023/07/06 04:30:36;;;;;;;16.55;9.27;;;12.20;99.90;;;;;;5072591;28;20048;-51
2023/07/06 04:33:03;;;;;;;19.52;9.57;;;12.20;99.90;;;;;;5055012;28;20061;-52
2023/07/06 04:35:31;;;;;;;17.17;9.88;;;12.20;99.90;;;;;;5052936;28;20237;-53
2023/07/06 04:37:59;;;;;;;21.75;9.80;;;12.20;99.90;;;;;;5073463;28;20054;-53
2023/07/06 04:40:26;;;;;;;13.77;9.43;;;12.20;99.90;;;;;;5055873;28;20048;-52
2023/07/06 04:42:54;;;;;;;17.23;9.63;;;12.40;99.90;;;;;;5072883;28;20677;-51
2023/07/06 04:45:22;;;;;;;20.10;9.80;;;12.40;99.90;;;;;;5073452;28;20130;-51
2023/07/06 04:47:51;;;;;;;20.70;9.82;;;10.80;99.90;;;;;;5072151;28;20036;-53
2023/07/06 04:50:21;;;;;;;17.70;9.60;;;12.40;99.90;;;;;;5072628;28;20681;-53
2023/07/06 04:52:53;;;;;;;19.13;9.65;;;12.40;99.90;;;;;;5072933;28;20090;-53
2023/07/06 04:55:22;;;;;;;14.48;9.40;;;12.40;99.90;;;;;;5072464;28;20553;-51
2023/07/06 04:57:54;;;;;;;16.75;10.13;;;12.50;99.90;;;;;;5073482;28;20540;-50
2023/07/06 05:00:24;;;;;;;16.30;9.40;;;12.70;99.90;;;;;;5072523;28;20138;-52
2023/07/06 05:02:55;;;;;;;17.50;9.85;;;12.80;99.90;;;;;;5072293;28;20055;-52
2023/07/06 05:05:22;;;;;;;18.65;9.98;;;12.80;99.90;;;;;;5072510;28;20097;-53
2023/07/06 05:07:48;;;;;;;16.50;9.55;;;12.90;99.90;;;;;;5072672;28;20064;-53
2023/07/06 05:10:15;;;;;;;16.70;9.60;;;12.80;99.90;;;;;;5074527;28;20089;-54
2023/07/06 05:12:44;;;;;;;16.60;10.13;;;13.00;99.90;;;;;;5074485;28;20040;-52
2023/07/06 05:15:11;;;;;;;14.52;9.68;;;12.80;99.90;;;;;;5073638;28;20067;-52
2023/07/06 05:17:38;;;;;;;19.65;10.82;;;13.00;99.90;;;;;;5073641;28;20225;-51
2023/07/06 05:20:10;;;;;;;14.68;9.90;;;13.30;99.90;;;;;;5072663;28;20040;-50
2023/07/06 05:22:39;;;;;;;18.98;9.90;;;13.30;99.90;;;;;;5074483;28;20109;-53
2023/07/06 05:25:06;;;;;;;16.52;10.55;;;13.40;99.90;;;;;;5072951;28;20059;-50
2023/07/06 05:27:33;;;;;;;21.17;9.48;;;13.40;99.90;;;;;;5073466;28;20048;-52
2023/07/06 05:29:59;;;;;;;21.17;9.95;;;13.40;99.90;;;;;;5074351;28;20397;-53
2023/07/06 05:32:25;;;;;;;19.77;9.57;;;13.60;99.90;;;;;;5072867;28;20131;-54
2023/07/06 05:34:50;;;;;;;25.55;10.75;;;13.60;99.90;;;;;;5073247;28;20131;-53
2023/07/06 05:37:16;;;;;;;19.58;9.90;;;13.80;99.90;;;;;;5071502;28;20071;-53
2023/07/06 05:39:42;;;;;;;20.88;9.63;;;13.90;99.90;;;;;;5072944;28;20044;-54
2023/07/06 05:42:08;;;;;;;18.55;8.93;;;14.00;99.90;;;;;;5071484;28;20035;-54
2023/07/06 05:44:33;;;;;;;20.13;10.50;;;14.10;99.90;;;;;;5072046;28;20357;-54
2023/07/06 05:46:59;;;;;;;21.13;10.45;;;14.20;99.90;;;;;;5072200;28;20137;-53
2023/07/06 05:49:25;;;;;;;17.77;8.77;;;14.20;99.90;;;;;;5071871;28;20102;-55
2023/07/06 05:51:51;;;;;;;19.67;9.38;;;14.40;99.90;;;;;;5072039;28;20434;-53
2023/07/06 05:54:16;;;;;;;19.98;9.68;;;14.50;99.90;;;;;;5071321;28;20109;-54
2023/07/06 05:56:42;;;;;;;23.52;9.90;;;14.70;99.90;;;;;;5073158;28;20036;-54
2023/07/06 05:59:08;;;;;;;18.55;8.32;;;14.80;99.90;;;;;;5054339;28;20044;-54
2023/07/06 06:01:35;;;;;;;19.25;9.20;;;14.70;99.90;;;;;;5054582;28;20345;-53
2023/07/06 06:04:03;;;;;;;21.50;9.15;;;14.90;99.90;;;;;;5071195;28;20396;-53
2023/07/06 06:06:54;;;;;;;19.17;9.32;;;15.00;99.90;;;;;;5072155;28;20143;-51
2023/07/06 06:09:21;;;;;;;22.77;8.90;;;15.00;99.90;;;;;;5071211;28;20044;-54
2023/07/06 06:11:50;;;;;;;17.42;8.65;;;15.20;99.90;;;;;;5072349;28;20040;-53
2023/07/06 06:14:16;;;;;;;23.30;9.25;;;15.30;99.90;;;;;;5072164;28;20040;-54
2023/07/06 06:16:42;;;;;;;21.77;9.98;;;15.30;99.90;;;;;;5072284;28;20408;-53
2023/07/06 06:19:09;;;;;;;17.70;8.55;;;15.50;99.90;;;;;;5072458;28;20040;-52
2023/07/06 06:21:35;;;;;;;17.92;8.00;;;15.50;99.90;;;;;;5071326;28;20719;-53
2023/07/06 06:24:02;;;;;;;17.17;8.43;;;15.60;99.90;;;;;;5071981;28;20073;-54
2023/07/06 06:26:29;;;;;;;22.42;8.60;;;16.00;99.90;;;;;;5073831;28;20052;-54
2023/07/06 06:28:57;;;;;;;21.13;7.70;;;16.30;99.90;;;;;;5073801;28;20222;-55
2023/07/06 06:31:23;;;;;;;21.02;7.82;;;16.50;99.90;;;;;;5072649;28;20086;-54
2023/07/06 06:33:49;;;;;;;15.23;6.88;;;16.60;99.90;;;;;;5073832;28;20134;-53
2023/07/06 06:36:19;;;;;;;19.92;7.43;;;16.70;99.90;;;;;;5072492;28;20036;-55
2023/07/06 06:38:45;;;;;;;15.10;7.50;;;17.10;99.90;;;;;;5072579;28;20405;-54
2023/07/06 06:41:11;;;;;;;18.25;7.25;;;17.10;99.90;;;;;;5075822;28;20509;-51
2023/07/06 06:43:43;;;;;;;16.20;7.45;;;17.10;99.90;;;;;;5076550;28;20162;-53
2023/07/06 06:46:10;;;;;;;15.90;7.13;;;17.10;99.90;;;;;;5076384;28;20524;-55
2023/07/06 06:48:36;;;;;;;15.15;5.53;;;16.90;99.90;;;;;;5075377;28;20831;-53
2023/07/06 06:51:10;;;;;;;17.65;7.07;;;17.00;99.90;;;;;;5058998;28;20338;-54
2023/07/06 06:53:40;;;;;;;21.63;6.15;;;17.30;99.90;;;;;;5058848;28;20082;-54
2023/07/06 06:56:07;;;;;;;15.55;6.93;;;17.70;99.90;;;;;;5076192;28;20507;-55
2023/07/06 06:58:33;;;;;;;15.60;5.72;;;17.80;99.90;;;;;;5076204;28;20143;-54
2023/07/06 07:01:01;;;;;;;14.23;6.97;;;17.90;99.90;;;;;;5075670;28;20051;-54
2023/07/06 07:03:28;;;;;;;16.10;6.20;;;18.10;99.90;;;;;;5074628;28;20104;-51
2023/07/06 07:06:11;;;;;;;17.05;6.38;;;18.20;99.90;;;;;;5056861;28;20336;-53
2023/07/06 07:08:49;;;;;;;14.07;5.43;;;18.20;99.90;;;;;;5056946;28;20056;-52
2023/07/06 07:11:19;;;;;;;14.05;5.72;;;18.20;99.90;;;;;;5075517;28;20036;-54
2023/07/06 07:13:45;;;;;;;16.15;6.18;;;18.40;99.90;;;;;;5074232;28;20409;-54
2023/07/06 07:16:12;;;;;;;13.00;5.43;;;18.80;99.90;;;;;;5074738;28;20048;-54
2023/07/06 07:18:38;;;;;;;17.45;5.20;;;19.60;99.90;;;;;;5074187;28;20047;-54
2023/07/06 07:21:07;;;;;;;14.45;4.50;;;20.20;99.90;;;;;;5075344;28;20058;-56
2023/07/06 07:23:42;;;;;;;12.00;4.88;;;20.90;99.90;;;;;;5074581;28;20038;-55
2023/07/06 07:26:13;;;;;;;11.07;3.85;;;21.80;99.90;;;;;;5057495;28;20211;-54
2023/07/06 07:28:40;;;;;;;11.18;3.20;;;22.30;99.90;;;;;;5075164;28;20052;-54
2023/07/06 07:31:11;;;;;;;8.45;2.50;;;23.20;99.90;;;;;;5075100;28;20055;-56
2023/07/06 07:33:37;;;;;;;9.95;2.80;;;24.00;99.90;;;;;;5074055;28;20058;-55
2023/07/06 07:36:04;;;;;;;7.13;1.98;;;24.60;99.90;;;;;;5075664;28;20069;-55
2023/07/06 07:38:30;;;;;;;6.55;2.30;;;25.40;99.90;;;;;;5074317;28;20047;-55
2023/07/06 07:40:59;;;;;;;6.57;2.15;;;25.90;99.90;;;;;;5074216;28;20368;-55
2023/07/06 07:43:33;;;;;;;7.00;2.17;;;25.90;99.90;;;;;;5073516;28;20044;-56
2023/07/06 07:46:03;;;;;;;10.48;2.58;;;25.90;99.90;;;;;;5074563;28;20401;-56
2023/07/06 07:48:32;;;;;;;8.23;2.33;;;25.80;99.90;;;;;;5074286;28;20522;-56
2023/07/06 07:51:02;;;;;;;7.35;2.10;;;26.30;99.90;;;;;;5074734;28;20032;-56
2023/07/06 07:53:34;;;;;;;7.70;2.05;;;26.40;99.90;;;;;;5075312;28;20032;-55
2023/07/06 07:56:00;;;;;;;9.95;2.60;;;26.70;99.90;;;;;;5075317;28;20392;-56
2023/07/06 07:58:27;;;;;;;7.95;2.25;;;26.30;99.90;;;;;;5075837;28;20380;-55
2023/07/06 08:00:59;;;;;;;6.80;2.00;;;26.00;99.90;;;;;;5075014;28;20042;-55
2023/07/06 08:03:27;;;;;;;6.75;2.10;;;24.50;99.90;;;;;;5074541;28;20596;-54
2023/07/06 08:05:58;;;;;;;6.68;1.85;;;24.70;99.90;;;;;;5075393;28;20086;-56
2023/07/06 08:08:25;;;;;;;8.95;1.77;;;24.90;99.90;;;;;;5074334;28;20059;-56
2023/07/06 08:10:53;;;;;;;7.57;1.67;;;24.50;99.90;;;;;;5074653;28;20058;-54
2023/07/06 08:13:20;;;;;;;9.40;1.88;;;24.10;99.90;;;;;;5073490;28;20052;-56
2023/07/06 08:15:46;;;;;;;8.38;1.95;;;23.10;99.90;;;;;;5075011;28;20051;-55
2023/07/06 08:18:12;;;;;;;8.32;1.85;;;22.20;99.90;;;;;;5074121;28;20044;-55
2023/07/06 08:20:39;;;;;;;7.78;2.35;;;21.40;99.90;;;;;;5073739;28;20048;-55
2023/07/06 08:23:10;;;;;;;5.95;1.70;;;20.50;99.90;;;;;;5073595;28;20059;-55
2023/07/06 08:25:40;;;;;;;8.75;2.10;;;20.00;99.90;;;;;;5072575;28;20097;-54
2023/07/06 08:28:08;;;;;;;6.45;1.70;;;19.60;99.90;;;;;;5074704;28;20077;-55
2023/07/06 08:30:35;;;;;;;5.90;1.77;;;20.70;99.90;;;;;;5073709;28;20047;-56
2023/07/06 08:33:01;;;;;;;13.38;2.20;;;20.80;99.90;;;;;;5073217;28;20459;-56
2023/07/06 08:35:30;;;;;;;5.53;1.48;;;22.10;99.90;;;;;;5073631;28;20097;-55
2023/07/06 08:37:57;;;;;;;6.75;1.85;;;22.80;99.90;;;;;;5073802;28;20059;-56
2023/07/06 08:40:28;;;;;;;3.88;1.50;;;22.80;99.90;;;;;;5073645;28;20040;-55
2023/07/06 08:42:56;;;;;;;8.18;1.90;;;22.30;99.90;;;;;;5072797;28;20350;-55
2023/07/06 08:45:41;;;;;;;7.93;1.58;;;21.80;99.90;;;;;;5073277;28;20124;-54
2023/07/06 08:48:12;;;;;;;8.18;2.17;;;21.00;99.90;;;;;;5072704;28;20424;-56
2023/07/06 08:50:40;;;;;;;6.78;1.92;;;20.50;99.90;;;;;;5073235;28;20134;-55
2023/07/06 08:53:10;;;;;;;5.35;1.60;;;20.40;99.90;;;;;;5073279;28;20044;-55
2023/07/06 08:55:36;;;;;;;4.80;1.50;;;20.50;99.90;;;;;;5073990;28;20044;-56
2023/07/06 08:58:03;;;;;;;5.80;1.40;;;20.80;99.90;;;;;;5074699;28;20391;-53
2023/07/06 09:00:31;;;;;;;5.88;1.42;;;20.80;99.90;;;;;;5073877;28;20075;-54
2023/07/06 09:03:08;;;;;;;5.85;1.50;;;20.50;99.90;;;;;;5054847;28;20056;-55
2023/07/06 09:05:37;;;;;;;4.95;1.60;;;20.30;99.90;;;;;;5074949;28;20036;-56
2023/07/06 09:08:03;;;;;;;6.18;1.35;;;20.00;99.90;;;;;;5073695;28;20551;-55
2023/07/06 09:10:30;;;;;;;5.25;1.65;;;20.00;99.90;;;;;;5073696;28;20055;-55
2023/07/06 09:13:17;;;;;;;4.38;1.38;;;20.00;99.90;;;;;;5073512;28;20064;-54
2023/07/06 09:15:44;;;;;;;5.53;1.40;;;19.80;99.90;;;;;;5060643;28;21422;-53
2023/07/06 09:18:14;;;;;;;5.68;1.40;;;19.60;99.90;;;;;;5074239;28;20051;-54
2023/07/06 09:20:40;;;;;;;4.82;1.35;;;19.90;99.90;;;;;;5074900;28;20067;-55
2023/07/06 09:23:06;;;;;;;4.63;1.38;;;20.10;99.90;;;;;;5073405;28;20043;-55
2023/07/06 09:25:42;;;;;;;3.05;1.23;;;20.10;99.90;;;;;;5073622;28;20098;-55
2023/07/06 09:28:23;;;;;;;4.97;1.20;;;20.10;99.90;;;;;;5073491;28;20040;-55
2023/07/06 09:31:04;;;;;;;5.40;1.27;;;19.40;99.90;;;;;;5073327;28;20524;-55
2023/07/06 09:33:30;;;;;;;4.75;1.50;;;19.80;99.90;;;;;;5073327;28;20147;-55
2023/07/06 09:35:57;;;;;;;4.05;1.50;;;19.80;99.90;;;;;;5072760;28;20200;-55
2023/07/06 09:38:25;;;;;;;4.57;1.63;;;19.70;99.90;;;;;;5071934;28;20127;-55
2023/07/06 09:40:52;;;;;;;3.75;1.20;;;19.50;99.90;;;;;;5072313;28;20381;-55
2023/07/06 09:43:21;;;;;;;5.53;1.40;;;19.50;99.90;;;;;;5071963;28;20063;-55
2023/07/06 09:45:49;;;;;;;5.15;1.67;;;19.40;99.90;;;;;;5072208;28;20035;-56
2023/07/06 09:48:25;;;;;;;8.05;1.92;;;19.60;99.90;;;;;;5072374;28;20580;-55
2023/07/06 09:50:55;;;;;;;7.18;2.08;;;19.80;99.90;;;;;;5072194;28;20364;-56
2023/07/06 09:53:28;;;;;;;7.47;1.88;;;19.90;99.90;;;;;;5072133;28;20101;-55
2023/07/06 09:55:54;;;;;;;8.23;2.20;;;19.60;99.90;;;;;;5072261;28;20501;-56
2023/07/06 09:58:24;;;;;;;8.70;1.95;;;19.40;99.90;;;;;;5073441;28;20047;-55
2023/07/06 10:01:25;;;;;;;8.93;2.58;;;19.30;99.90;;;;;;5072466;28;20252;-55
2023/07/06 10:04:12;;;;;;;6.35;1.95;;;19.80;99.90;;;;;;5017183;28;20051;-55
2023/07/06 10:07:01;;;;;;;5.53;1.60;;;20.50;99.90;;;;;;5072778;28;20136;-55
2023/07/06 10:09:40;;;;;;;5.43;1.58;;;20.60;99.90;;;;;;5072826;28;20077;-55
2023/07/06 10:12:33;;;;;;;4.57;1.40;;;20.40;99.90;;;;;;5072324;28;20221;-55
2023/07/06 10:15:02;;;;;;;6.03;1.67;;;20.10;99.90;;;;;;5076525;28;20043;-55
2023/07/06 10:17:35;;;;;;;6.43;2.13;;;20.20;99.90;;;;;;5076084;28;20050;-55
2023/07/06 10:20:12;;;;;;;6.00;1.60;;;20.90;99.90;;;;;;5077091;28;20283;-56
2023/07/06 10:22:38;;;;;;;4.60;1.20;;;21.10;99.90;;;;;;5079083;28;20043;-56
2023/07/06 10:25:33;;;;;;;6.05;1.60;;;21.60;99.90;;;;;;5076733;28;20052;-55
2023/07/06 10:28:14;;;;;;;4.97;1.45;;;22.10;99.90;;;;;;5077337;28;20061;-55
2023/07/06 10:30:47;;;;;;;4.35;1.50;;;22.30;99.90;;;;;;5077993;28;20477;-56
2023/07/06 10:33:17;;;;;;;5.63;1.38;;;22.50;99.90;;;;;;5076988;28;20040;-56
2023/07/06 10:35:46;;;;;;;4.30;1.15;;;22.70;99.90;;;;;;5078592;28;20406;-55
2023/07/06 10:38:12;;;;;;;5.03;1.30;;;22.40;99.90;;;;;;5078528;28;20040;-55
2023/07/06 10:40:39;;;;;;;4.47;1.50;;;22.50;99.90;;;;;;5077588;28;20050;-56
2023/07/06 10:43:09;;;;;;;6.10;1.58;;;22.90;99.90;;;;;;5076871;28;21139;-56
2023/07/06 10:45:45;;;;;;;6.15;1.70;;;22.90;99.90;;;;;;5076528;28;20115;-56
2023/07/06 10:48:16;;;;;;;7.35;2.05;;;23.10;99.90;;;;;;5076531;28;20044;-56
2023/07/06 10:50:51;;;;;;;7.32;2.17;;;22.90;99.90;;;;;;5076227;28;20429;-55
2023/07/06 10:53:41;;;;;;;5.65;1.95;;;23.10;99.90;;;;;;5075495;28;20499;-56
2023/07/06 10:56:22;;;;;;;5.68;1.60;;;23.10;99.90;;;;;;5064653;28;20080;-56
2023/07/06 10:58:48;;;;;;;3.38;1.13;;;22.50;99.90;;;;;;5076393;28;20039;-56
2023/07/06 11:01:19;;;;;;;5.60;1.98;;;22.20;99.90;;;;;;5076737;28;20040;-55
2023/07/06 11:03:45;;;;;;;3.38;1.30;;;21.60;99.90;;;;;;5075156;28;20051;-56
2023/07/06 11:06:16;;;;;;;7.03;1.75;;;21.30;99.90;;;;;;5076389;28;20113;-54
2023/07/06 11:09:14;;;;;;;6.63;1.97;;;20.70;99.90;;;;;;5076419;28;20039;-56
2023/07/06 11:12:01;;;;;;;5.30;1.50;;;20.30;99.90;;;;;;5075021;28;20494;-56
2023/07/06 11:14:33;;;;;;;5.70;1.90;;;19.90;99.90;;;;;;5055843;28;20036;-55
2023/07/06 11:17:04;;;;;;;;;;;19.80;99.90;;;;;;5057096;28;20048;-55
2023/07/06 11:19:43;;;;;;;8.02;2.08;;;19.50;99.90;;;;;;5074135;28;20297;-55
2023/07/06 11:22:24;;;;;;;6.28;2.38;;;19.30;99.90;;;;;;5075116;28;20324;-54
2023/07/06 11:24:54;;;;;;;4.93;1.93;;;19.30;99.90;;;;;;5074232;28;20044;-55
2023/07/06 11:27:36;;;;;;;4.00;1.70;;;19.20;99.90;;;;;;5056959;28;20123;-54
2023/07/06 11:30:36;;;;;;;4.90;1.58;;;19.20;99.90;;;;;;5058340;28;20048;-54
2023/07/06 11:33:15;;;;;;;6.63;1.80;;;19.30;99.90;;;;;;5074264;28;20043;-54
2023/07/06 11:35:50;;;;;;;5.85;1.83;;;19.50;99.90;;;;;;5074651;28;20400;-54
2023/07/06 11:38:49;;;;;;;5.03;1.77;;;20.50;99.90;;;;;;5074158;28;20044;-53
2023/07/06 11:41:35;;;;;;;7.63;2.92;;;20.80;99.90;;;;;;5056297;28;20048;-56
2023/07/06 11:44:24;;;;;;;8.40;1.88;;;21.10;99.90;;;;;;5074348;28;20040;-56
2023/07/06 11:47:12;;;;;;;3.53;1.60;;;20.60;99.90;;;;;;5074253;28;20048;-55
2023/07/06 11:49:42;;;;;;;6.07;1.60;;;20.40;99.90;;;;;;5073516;28;20094;-55
2023/07/06 11:52:33;;;;;;;4.32;1.30;;;20.30;99.90;;;;;;5074281;28;20048;-56
2023/07/06 11:55:18;;;;;;;4.07;1.30;;;20.40;99.90;;;;;;5063571;28;20044;-55
2023/07/06 11:58:08;;;;;;;2.95;1.23;;;20.30;99.90;;;;;;5075379;28;20047;-56
2023/07/06 12:00:48;;;;;;;4.28;1.40;;;20.40;99.90;;;;;;5075225;28;20040;-56
2023/07/06 12:03:15;;;;;;;3.25;0.95;;;20.30;99.90;;;;;;5074437;28;20473;-54
2023/07/06 12:05:49;;;;;;;3.35;1.00;;;20.00;99.90;;;;;;5075454;28;20459;-57
2023/07/06 12:08:24;;;;;;;4.32;1.02;;;20.70;99.90;;;;;;5054054;28;20040;-55
2023/07/06 12:10:53;;;;;;;2.22;0.90;;;20.90;99.90;;;;;;5055424;28;20067;-56
2023/07/06 12:13:25;;;;;;;5.20;0.90;;;21.10;99.90;;;;;;5054106;28;20048;-56
2023/07/06 12:16:03;;;;;;;3.80;1.10;;;21.10;99.90;;;;;;5054746;28;20040;-55
2023/07/06 12:18:29;;;;;;;5.28;1.20;;;21.50;99.90;;;;;;5053191;28;20064;-56
2023/07/06 12:20:55;;;;;;;4.03;1.05;;;21.60;99.90;;;;;;5054060;28;20036;-56
2023/07/06 12:23:22;;;;;;;2.33;0.70;;;22.20;99.90;;;;;;5053613;28;20121;-56
2023/07/06 12:25:48;;;;;;;3.63;1.10;;;22.40;99.90;;;;;;5053623;28;20135;-56
2023/07/06 12:28:16;;;;;;;9.10;1.45;;;22.80;99.90;;;;;;5054482;28;20044;-56
2023/07/06 12:30:43;;;;;;;4.90;1.20;;;22.90;99.90;;;;;;5054768;28;20040;-57
2023/07/06 12:33:19;;;;;;;7.03;1.10;;;22.80;99.90;;;;;;5053155;28;20051;-56
2023/07/06 12:35:46;;;;;;;7.93;1.52;;;22.80;99.90;;;;;;5054133;28;20455;-56
2023/07/06 12:38:15;;;;;;;7.32;1.75;;;23.20;99.90;;;;;;5054118;28;20110;-56
2023/07/06 12:40:41;;;;;;;5.85;1.08;;;23.40;99.90;;;;;;5053745;28;20204;-56
2023/07/06 12:43:24;;;;;;;4.43;0.95;;;23.20;99.90;;;;;;5053746;28;20202;-56
2023/07/06 12:45:52;;;;;;;3.83;0.90;;;23.40;99.90;;;;;;5052481;28;20047;-56
2023/07/06 12:48:24;;;;;;;3.60;0.88;;;23.10;99.90;;;;;;5053326;28;20401;-56
2023/07/06 12:50:54;;;;;;;2.80;1.13;;;23.10;99.90;;;;;;5052803;28;20060;-56
2023/07/06 12:53:33;;;;;;;4.78;1.20;;;23.00;99.90;;;;;;5052775;28;20048;-57
2023/07/06 12:56:09;;;;;;;3.47;1.20;;;22.80;99.90;;;;;;5053443;28;20045;-54
2023/07/06 12:58:37;;;;;;;7.40;2.13;;;22.60;99.90;;;;;;5054403;28;20051;-55